Port Sheldon, MI

5:49 PM EDT on September 03, 2015 (GMT -0400)
US31 & Croswell st | | Change Station
CLOSE
Current Station
Personal Weather Station
Location: West Olive, MI
Elevation: 642 ft
Nearby Weather Stations

Elev 642 ft 42.92 °N, 86.14 °W | Updated 5 seconds ago

Partly Cloudy
Partly Cloudy
76.4 °F
Feels Like 77 °F
N
1.0
Wind Variable Wind from SW
Gusts 3.0 mph

Today
High -- | Low -- °F
--% Chance of Precip.
Yesterday
High -- | Low -- °F
Precip. -- in
7:10 AM 8:16 PM
Waning Gibbous, 66% visible
Pressure 29.90 in
Visibility 7.0 miles
Clouds Clear
Heat Index 77 °F
Dew Point 72 °F
Humidity 85%
Rainfall 0.28 in
Snow Depth Not available.
UV 4 out of 12
Pollen 8.20 out of 12
Air Quality Not available.
Flu Activity Not available.
METAR KBIV 032053Z AUTO 28008KT 7SM CLR 26/21 A2991 RMK AO2 SLP124 60003 T02610211 56008
Pressure 29.90 in
Visibility 7.0 miles
Clouds Clear
Heat Index 77 °F
Dew Point 72 °F
Humidity 85%
Rainfall 0.28 in
Snow Depth Not available.
UV 4 out of 12
Pollen 8.20 out of 12
Air Quality Not available.
Flu Activity Not available.
METAR KBIV 032053Z AUTO 28008KT 7SM CLR 26/21 A2991 RMK AO2 SLP124 60003 T02610211 56008

10-Day Weather Forecast

×

Almanac

Astronomy

Sep. 03, 2015 Rise Set
Actual Time
Civil Twilight
Nautical Twilight
Astronomical Twilight
Moon
Length of Visible Light
Length of Day
Tomorrow will be .
, % of the Moon is Illuminated

Today's Extremes

State Highs State Lows

Community

WunderPhotos

Upload Photos

1,852,045 photos uploaded!

WunderBlogs® & News

Nearby

Air Quality

  Air Quality AQ Index Pollutant
Not available.

Snow Depth

Station Depth Elevation

Earthquake Activity

City Distance Mag. Time & Date
Minimum magnitude displayed is 2.5.

Coastal Water Temperatures

Place Temperature

Stations

Nearby Weather Stations

Station Location Temp. Windchill Dew Point Humidity Wind Precip. Elev Updated Type